East Freedom, Pennsylvania
Current Conditions -  °F | °C
As of 11:53 PM on Friday 28 Nov 2014 (Local Time) from KAOO Reporting Station
Overcast Overcast  
Wind Chill: 18°   Ceiling: 8500
Heat Index: 24°   Visibility: 10mi
Dew Point: 16°   Wind: 5mph
Humidity: 71%   Direction: 200°SSW
Pressure: 30.19"   Gusts: NA
Location:  40.36°N, 78.43°W
Report Text: KAOO 290453Z AUTO 20004KT 10SM BKN085 OVC120 M04/M09 A3019 RMK AO2 SLP244 T10441089 410171067
Loading
Personal Weather Stations






























Interactive Weather Map New forecast layout! Learn more

10-Day Weather Forecast

Advertisements
Track Severe Weather on mobile